Big Trout Lake Airport
CYTL : now visible

Airfield :











YOU CAN JOIN US ON...

 
LOGIN :

Register | Disclaimer

   EN    FR    IT 

 









Legend :    VFR   Marginal VFR   IFR   Intensive IFR   Very Intensive IFR
Visi :
Ceiling :
>= 8 km
>= 3000ft
5 to 8 km
1000 to 3000 ft
1500m to 5 km
500 to 1000 ft
800 to 1500m
200 to 500 ft
< 800m
< 200 ft
Symbols :   Thunderstorms  Fog  Heavy snow  Heavy precipitations  Wind > 20 kt






- Airport Elevation : 729 ft
- IATA code : YTL


CYTL - Big Trout Lake

CURRENT METAR :
  • 221300Z AUTO 23009G16KT 9SM -SN BKN065 OVC082 M09/M10 A2963 RMK SLP057

EXPIRED METARs :
  • 221256Z AUTO 24008G16KT 9SM -SN BKN065 OVC082 M09/M10 A2964 RMK SLP058
  • 221227Z AUTO 24009KT 9SM SCT012 BKN060 OVC075 M09/M11 A2965 RMK SLP064
  • 221200Z AUTO 25008KT 9SM BKN012 BKN075 OVC100 M10/M11 A2968 RMK SLP072
  • 221100Z AUTO 24008KT 9SM BKN065 OVC092 M10/M12 A2970 RMK SLP082

TAF TAF CYTL
Valid from the 22 at 08:00 until the 22 at 20:00 UTC


220738Z 2208/2220 25008KT P6SM SCT020 BKN090
TEMPO 2208/2213 BKN020
BECMG 2208/2210 25010G20KT
FM221300 23012G22KT 6SM -SN SCT012 BKN025 OVC040
TEMPO 2213/2220 2SM -SN BKN012 OVC025 RMK FCST BASED ON AUTO OBS. NXT FCST BY 221400Z



MET'MAP, your aeronautical weather chart ! - Copyright ORBIFLY December 2007 - Disclaimer

ORBIFLY MET'MAP TEAM :

Programming & Development : Alexandra Zaïnal
Concept & Development : Baudouin d'Aumeries
Co-Development & Prog : Marc-Olivier Méhu
Technical & hardware support : Manuel Goepfert

Contact : metmap@orbifly.com




SOURCES & CREDITS :

   NOAA       Earth
Advisory